sensor_id;sensor_type;location;lat;lon;timestamp;P1;durP1;ratioP1;P2;durP2;ratioP2
22476;SDS011;65006;51.698;-0.292;2023-08-21T00:01:50;5.38;;;1.40;;
22476;SDS011;65006;51.698;-0.292;2023-08-21T00:04:16;7.72;;;1.90;;
22476;SDS011;65006;51.698;-0.292;2023-08-21T00:06:42;2.90;;;1.52;;
22476;SDS011;65006;51.698;-0.292;2023-08-21T00:09:08;8.07;;;2.10;;
22476;SDS011;65006;51.698;-0.292;2023-08-21T00:11:34;5.85;;;1.50;;
22476;SDS011;65006;51.698;-0.292;2023-08-21T00:14:00;6.03;;;1.58;;
22476;SDS011;65006;51.698;-0.292;2023-08-21T00:16:26;6.68;;;1.90;;
22476;SDS011;65006;51.698;-0.292;2023-08-21T00:21:19;5.07;;;1.52;;
22476;SDS011;65006;51.698;-0.292;2023-08-21T00:23:45;4.13;;;1.38;;
22476;SDS011;65006;51.698;-0.292;2023-08-21T00:26:11;7.40;;;2.75;;
22476;SDS011;65006;51.698;-0.292;2023-08-21T00:28:38;8.38;;;1.88;;
22476;SDS011;65006;51.698;-0.292;2023-08-21T00:31:04;3.85;;;1.80;;
22476;SDS011;65006;51.698;-0.292;2023-08-21T00:33:31;7.32;;;1.95;;
22476;SDS011;65006;51.698;-0.292;2023-08-21T00:35:57;5.97;;;1.83;;
22476;SDS011;65006;51.698;-0.292;2023-08-21T00:38:23;5.47;;;2.05;;
22476;SDS011;65006;51.698;-0.292;2023-08-21T00:40:49;5.65;;;1.90;;
22476;SDS011;65006;51.698;-0.292;2023-08-21T00:43:15;7.32;;;2.08;;
22476;SDS011;65006;51.698;-0.292;2023-08-21T00:45:42;6.50;;;1.98;;
22476;SDS011;65006;51.698;-0.292;2023-08-21T00:48:08;6.25;;;2.63;;
22476;SDS011;65006;51.698;-0.292;2023-08-21T00:53:01;10.00;;;1.70;;
22476;SDS011;65006;51.698;-0.292;2023-08-21T00:55:28;8.65;;;1.92;;
22476;SDS011;65006;51.698;-0.292;2023-08-21T00:57:54;6.97;;;2.03;;
22476;SDS011;65006;51.698;-0.292;2023-08-21T01:00:20;8.90;;;2.10;;
22476;SDS011;65006;51.698;-0.292;2023-08-21T01:02:47;6.40;;;2.30;;
22476;SDS011;65006;51.698;-0.292;2023-08-21T01:05:13;10.88;;;1.65;;
22476;SDS011;65006;51.698;-0.292;2023-08-21T01:07:44;10.35;;;2.30;;
22476;SDS011;65006;51.698;-0.292;2023-08-21T01:10:20;8.05;;;1.65;;
22476;SDS011;65006;51.698;-0.292;2023-08-21T01:15:16;5.38;;;1.73;;
22476;SDS011;65006;51.698;-0.292;2023-08-21T01:17:42;6.68;;;1.88;;
22476;SDS011;65006;51.698;-0.292;2023-08-21T01:22:39;7.75;;;2.67;;
22476;SDS011;65006;51.698;-0.292;2023-08-21T01:25:05;4.72;;;2.08;;
22476;SDS011;65006;51.698;-0.292;2023-08-21T01:27:32;11.60;;;2.15;;
22476;SDS011;65006;51.698;-0.292;2023-08-21T01:29:58;8.80;;;2.25;;
22476;SDS011;65006;51.698;-0.292;2023-08-21T01:32:33;10.55;;;2.38;;
22476;SDS011;65006;51.698;-0.292;2023-08-21T01:35:00;6.57;;;2.00;;
22476;SDS011;65006;51.698;-0.292;2023-08-21T01:39:53;7.07;;;2.10;;
22476;SDS011;65006;51.698;-0.292;2023-08-21T01:42:19;8.45;;;2.00;;
22476;SDS011;65006;51.698;-0.292;2023-08-21T01:44:45;4.00;;;2.10;;
22476;SDS011;65006;51.698;-0.292;2023-08-21T01:47:11;8.57;;;2.80;;
22476;SDS011;65006;51.698;-0.292;2023-08-21T01:49:37;10.60;;;3.30;;
22476;SDS011;65006;51.698;-0.292;2023-08-21T01:52:03;6.65;;;2.55;;
22476;SDS011;65006;51.698;-0.292;2023-08-21T01:54:30;5.95;;;2.55;;
22476;SDS011;65006;51.698;-0.292;2023-08-21T01:56:56;7.75;;;2.42;;
22476;SDS011;65006;51.698;-0.292;2023-08-21T01:59:22;11.07;;;2.55;;
22476;SDS011;65006;51.698;-0.292;2023-08-21T02:01:49;8.60;;;2.58;;
22476;SDS011;65006;51.698;-0.292;2023-08-21T02:04:15;8.75;;;2.50;;
22476;SDS011;65006;51.698;-0.292;2023-08-21T02:06:41;11.50;;;2.35;;
22476;SDS011;65006;51.698;-0.292;2023-08-21T02:09:09;7.72;;;2.63;;
22476;SDS011;65006;51.698;-0.292;2023-08-21T02:11:35;7.45;;;2.13;;
22476;SDS011;65006;51.698;-0.292;2023-08-21T02:14:01;6.15;;;2.42;;
22476;SDS011;65006;51.698;-0.292;2023-08-21T02:16:27;5.15;;;2.03;;
22476;SDS011;65006;51.698;-0.292;2023-08-21T02:18:53;10.63;;;2.40;;
22476;SDS011;65006;51.698;-0.292;2023-08-21T02:21:20;7.25;;;2.25;;
22476;SDS011;65006;51.698;-0.292;2023-08-21T02:23:46;6.78;;;2.60;;
22476;SDS011;65006;51.698;-0.292;2023-08-21T02:26:12;5.85;;;2.88;;
22476;SDS011;65006;51.698;-0.292;2023-08-21T02:28:38;13.15;;;2.75;;
22476;SDS011;65006;51.698;-0.292;2023-08-21T02:31:04;7.45;;;2.63;;
22476;SDS011;65006;51.698;-0.292;2023-08-21T02:33:30;8.98;;;2.67;;
22476;SDS011;65006;51.698;-0.292;2023-08-21T02:35:56;7.70;;;2.85;;
22476;SDS011;65006;51.698;-0.292;2023-08-21T02:38:22;8.23;;;2.97;;
22476;SDS011;65006;51.698;-0.292;2023-08-21T02:40:48;9.65;;;2.70;;
22476;SDS011;65006;51.698;-0.292;2023-08-21T02:43:14;10.20;;;3.30;;
22476;SDS011;65006;51.698;-0.292;2023-08-21T02:45:41;9.60;;;3.45;;
22476;SDS011;65006;51.698;-0.292;2023-08-21T02:48:07;7.13;;;3.08;;
22476;SDS011;65006;51.698;-0.292;2023-08-21T02:50:33;11.52;;;3.50;;
22476;SDS011;65006;51.698;-0.292;2023-08-21T02:52:59;11.25;;;3.88;;
22476;SDS011;65006;51.698;-0.292;2023-08-21T02:55:25;11.38;;;3.25;;
22476;SDS011;65006;51.698;-0.292;2023-08-21T02:57:51;11.23;;;4.28;;
22476;SDS011;65006;51.698;-0.292;2023-08-21T03:00:17;8.88;;;3.97;;
22476;SDS011;65006;51.698;-0.292;2023-08-21T03:02:43;9.95;;;3.63;;
22476;SDS011;65006;51.698;-0.292;2023-08-21T03:05:10;11.55;;;4.35;;
22476;SDS011;65006;51.698;-0.292;2023-08-21T03:10:02;9.20;;;4.05;;
22476;SDS011;65006;51.698;-0.292;2023-08-21T03:12:28;6.72;;;4.22;;
22476;SDS011;65006;51.698;-0.292;2023-08-21T03:14:54;8.35;;;4.15;;
22476;SDS011;65006;51.698;-0.292;2023-08-21T03:17:20;12.52;;;3.83;;
22476;SDS011;65006;51.698;-0.292;2023-08-21T03:19:46;9.98;;;3.90;;
22476;SDS011;65006;51.698;-0.292;2023-08-21T03:22:12;11.88;;;4.05;;
22476;SDS011;65006;51.698;-0.292;2023-08-21T03:27:04;9.60;;;4.53;;
22476;SDS011;65006;51.698;-0.292;2023-08-21T03:29:30;10.52;;;4.63;;
22476;SDS011;65006;51.698;-0.292;2023-08-21T03:31:57;12.18;;;4.30;;
22476;SDS011;65006;51.698;-0.292;2023-08-21T03:34:23;10.48;;;4.53;;
22476;SDS011;65006;51.698;-0.292;2023-08-21T03:36:49;16.23;;;4.53;;
22476;SDS011;65006;51.698;-0.292;2023-08-21T03:39:15;8.88;;;4.65;;
22476;SDS011;65006;51.698;-0.292;2023-08-21T03:41:41;10.00;;;4.70;;
22476;SDS011;65006;51.698;-0.292;2023-08-21T03:44:07;14.75;;;5.38;;
22476;SDS011;65006;51.698;-0.292;2023-08-21T03:46:33;14.63;;;5.10;;
22476;SDS011;65006;51.698;-0.292;2023-08-21T03:48:59;8.55;;;4.78;;
22476;SDS011;65006;51.698;-0.292;2023-08-21T03:51:25;14.15;;;5.30;;
22476;SDS011;65006;51.698;-0.292;2023-08-21T03:53:51;10.60;;;5.05;;
22476;SDS011;65006;51.698;-0.292;2023-08-21T03:56:17;7.78;;;4.57;;
22476;SDS011;65006;51.698;-0.292;2023-08-21T03:58:44;17.52;;;5.53;;
22476;SDS011;65006;51.698;-0.292;2023-08-21T04:01:10;16.55;;;5.15;;
22476;SDS011;65006;51.698;-0.292;2023-08-21T04:03:36;13.82;;;5.30;;
22476;SDS011;65006;51.698;-0.292;2023-08-21T04:06:02;6.63;;;4.57;;
22476;SDS011;65006;51.698;-0.292;2023-08-21T04:08:28;9.98;;;4.90;;
22476;SDS011;65006;51.698;-0.292;2023-08-21T04:10:54;11.40;;;5.85;;
22476;SDS011;65006;51.698;-0.292;2023-08-21T04:13:24;17.77;;;4.65;;
22476;SDS011;65006;51.698;-0.292;2023-08-21T04:15:53;9.57;;;5.03;;
22476;SDS011;65006;51.698;-0.292;2023-08-21T04:18:19;9.48;;;5.20;;
22476;SDS011;65006;51.698;-0.292;2023-08-21T04:20:47;10.90;;;5.05;;
22476;SDS011;65006;51.698;-0.292;2023-08-21T04:23:13;11.95;;;4.95;;
22476;SDS011;65006;51.698;-0.292;2023-08-21T04:25:39;13.20;;;6.03;;
22476;SDS011;65006;51.698;-0.292;2023-08-21T04:28:05;12.10;;;5.38;;
22476;SDS011;65006;51.698;-0.292;2023-08-21T04:30:32;13.93;;;5.50;;
22476;SDS011;65006;51.698;-0.292;2023-08-21T04:32:59;14.00;;;5.72;;
22476;SDS011;65006;51.698;-0.292;2023-08-21T04:37:51;12.45;;;5.40;;
22476;SDS011;65006;51.698;-0.292;2023-08-21T04:40:17;11.27;;;5.78;;
22476;SDS011;65006;51.698;-0.292;2023-08-21T04:42:45;15.75;;;5.38;;
22476;SDS011;65006;51.698;-0.292;2023-08-21T04:47:38;11.80;;;4.95;;
22476;SDS011;65006;51.698;-0.292;2023-08-21T04:50:04;9.35;;;4.47;;
22476;SDS011;65006;51.698;-0.292;2023-08-21T04:52:30;23.58;;;5.13;;
22476;SDS011;65006;51.698;-0.292;2023-08-21T04:54:56;10.02;;;4.60;;
22476;SDS011;65006;51.698;-0.292;2023-08-21T04:57:22;12.07;;;4.95;;
22476;SDS011;65006;51.698;-0.292;2023-08-21T04:59:48;17.02;;;4.75;;
22476;SDS011;65006;51.698;-0.292;2023-08-21T05:02:16;8.80;;;4.88;;
22476;SDS011;65006;51.698;-0.292;2023-08-21T05:04:42;10.70;;;4.65;;
22476;SDS011;65006;51.698;-0.292;2023-08-21T05:07:08;10.88;;;5.82;;
22476;SDS011;65006;51.698;-0.292;2023-08-21T05:09:34;12.50;;;4.82;;
22476;SDS011;65006;51.698;-0.292;2023-08-21T05:12:00;11.45;;;4.47;;
22476;SDS011;65006;51.698;-0.292;2023-08-21T05:14:26;7.45;;;4.47;;
22476;SDS011;65006;51.698;-0.292;2023-08-21T05:16:52;13.38;;;4.82;;
22476;SDS011;65006;51.698;-0.292;2023-08-21T05:19:18;8.13;;;4.82;;
22476;SDS011;65006;51.698;-0.292;2023-08-21T05:21:44;8.57;;;4.55;;
22476;SDS011;65006;51.698;-0.292;2023-08-21T05:24:10;19.38;;;5.60;;
22476;SDS011;65006;51.698;-0.292;2023-08-21T05:26:36;8.30;;;3.88;;
22476;SDS011;65006;51.698;-0.292;2023-08-21T05:29:02;7.13;;;4.10;;
22476;SDS011;65006;51.698;-0.292;2023-08-21T05:31:28;14.70;;;5.13;;
22476;SDS011;65006;51.698;-0.292;2023-08-21T05:33:54;12.95;;;4.55;;
22476;SDS011;65006;51.698;-0.292;2023-08-21T05:36:20;9.48;;;4.70;;
22476;SDS011;65006;51.698;-0.292;2023-08-21T05:38:46;10.00;;;4.13;;
22476;SDS011;65006;51.698;-0.292;2023-08-21T05:43:39;11.85;;;4.45;;
22476;SDS011;65006;51.698;-0.292;2023-08-21T05:46:07;8.45;;;4.40;;
22476;SDS011;65006;51.698;-0.292;2023-08-21T05:48:33;9.73;;;4.05;;
22476;SDS011;65006;51.698;-0.292;2023-08-21T05:50:59;9.43;;;4.15;;
22476;SDS011;65006;51.698;-0.292;2023-08-21T05:53:25;8.23;;;3.63;;
22476;SDS011;65006;51.698;-0.292;2023-08-21T05:55:52;12.95;;;4.18;;
22476;SDS011;65006;51.698;-0.292;2023-08-21T05:58:18;7.85;;;3.83;;
22476;SDS011;65006;51.698;-0.292;2023-08-21T06:00:44;12.50;;;3.90;;
22476;SDS011;65006;51.698;-0.292;2023-08-21T06:03:10;6.78;;;3.40;;
22476;SDS011;65006;51.698;-0.292;2023-08-21T06:05:36;7.90;;;3.67;;
22476;SDS011;65006;51.698;-0.292;2023-08-21T06:08:02;6.22;;;2.95;;
22476;SDS011;65006;51.698;-0.292;2023-08-21T06:10:28;4.75;;;2.80;;
22476;SDS011;65006;51.698;-0.292;2023-08-21T06:12:54;7.10;;;3.10;;
22476;SDS011;65006;51.698;-0.292;2023-08-21T06:15:20;6.05;;;3.42;;
22476;SDS011;65006;51.698;-0.292;2023-08-21T06:17:46;5.53;;;3.25;;
22476;SDS011;65006;51.698;-0.292;2023-08-21T06:20:12;11.73;;;3.63;;
22476;SDS011;65006;51.698;-0.292;2023-08-21T06:22:39;6.38;;;2.92;;
22476;SDS011;65006;51.698;-0.292;2023-08-21T06:25:05;4.15;;;2.78;;
22476;SDS011;65006;51.698;-0.292;2023-08-21T06:27:31;8.25;;;3.60;;
22476;SDS011;65006;51.698;-0.292;2023-08-21T06:29:57;6.72;;;2.92;;
22476;SDS011;65006;51.698;-0.292;2023-08-21T06:32:23;4.97;;;3.00;;
22476;SDS011;65006;51.698;-0.292;2023-08-21T06:34:50;8.10;;;2.80;;
22476;SDS011;65006;51.698;-0.292;2023-08-21T06:37:16;5.28;;;2.60;;
22476;SDS011;65006;51.698;-0.292;2023-08-21T06:39:42;7.32;;;3.45;;
22476;SDS011;65006;51.698;-0.292;2023-08-21T06:42:08;5.72;;;3.00;;
22476;SDS011;65006;51.698;-0.292;2023-08-21T06:44:34;10.25;;;3.63;;
22476;SDS011;65006;51.698;-0.292;2023-08-21T06:47:00;6.32;;;3.13;;
22476;SDS011;65006;51.698;-0.292;2023-08-21T06:49:26;9.25;;;3.25;;
22476;SDS011;65006;51.698;-0.292;2023-08-21T06:51:52;9.73;;;3.15;;
22476;SDS011;65006;51.698;-0.292;2023-08-21T06:54:18;8.30;;;2.95;;
22476;SDS011;65006;51.698;-0.292;2023-08-21T06:56:44;7.22;;;3.00;;
22476;SDS011;65006;51.698;-0.292;2023-08-21T06:59:10;6.47;;;3.05;;
22476;SDS011;65006;51.698;-0.292;2023-08-21T07:01:36;12.00;;;3.00;;
22476;SDS011;65006;51.698;-0.292;2023-08-21T07:04:02;8.88;;;2.75;;
22476;SDS011;65006;51.698;-0.292;2023-08-21T07:06:28;7.57;;;2.58;;
22476;SDS011;65006;51.698;-0.292;2023-08-21T07:08:54;7.38;;;2.90;;
22476;SDS011;65006;51.698;-0.292;2023-08-21T07:11:20;7.60;;;2.28;;
22476;SDS011;65006;51.698;-0.292;2023-08-21T07:13:46;10.77;;;2.65;;
22476;SDS011;65006;51.698;-0.292;2023-08-21T07:16:12;5.05;;;1.90;;
22476;SDS011;65006;51.698;-0.292;2023-08-21T07:18:38;4.60;;;1.85;;
22476;SDS011;65006;51.698;-0.292;2023-08-21T07:21:04;5.35;;;1.63;;
22476;SDS011;65006;51.698;-0.292;2023-08-21T07:23:31;7.97;;;1.70;;
22476;SDS011;65006;51.698;-0.292;2023-08-21T07:25:58;6.10;;;1.60;;
22476;SDS011;65006;51.698;-0.292;2023-08-21T07:28:25;4.70;;;1.67;;
22476;SDS011;65006;51.698;-0.292;2023-08-21T07:30:55;2.50;;;1.40;;
22476;SDS011;65006;51.698;-0.292;2023-08-21T07:33:21;6.00;;;1.27;;
22476;SDS011;65006;51.698;-0.292;2023-08-21T07:35:47;7.72;;;1.55;;
22476;SDS011;65006;51.698;-0.292;2023-08-21T07:38:13;2.80;;;1.52;;
22476;SDS011;65006;51.698;-0.292;2023-08-21T07:40:39;9.07;;;1.60;;
22476;SDS011;65006;51.698;-0.292;2023-08-21T07:43:05;8.52;;;2.33;;
22476;SDS011;65006;51.698;-0.292;2023-08-21T07:45:31;6.60;;;2.85;;
22476;SDS011;65006;51.698;-0.292;2023-08-21T07:47:57;7.75;;;3.22;;
22476;SDS011;65006;51.698;-0.292;2023-08-21T07:50:23;16.08;;;3.67;;
22476;SDS011;65006;51.698;-0.292;2023-08-21T07:52:49;5.60;;;2.92;;
22476;SDS011;65006;51.698;-0.292;2023-08-21T07:55:15;8.45;;;3.00;;
22476;SDS011;65006;51.698;-0.292;2023-08-21T07:57:41;10.40;;;2.53;;
22476;SDS011;65006;51.698;-0.292;2023-08-21T08:00:07;10.48;;;2.30;;
22476;SDS011;65006;51.698;-0.292;2023-08-21T08:02:34;6.90;;;2.75;;
22476;SDS011;65006;51.698;-0.292;2023-08-21T08:05:00;5.28;;;2.60;;
22476;SDS011;65006;51.698;-0.292;2023-08-21T08:07:26;7.20;;;2.13;;
22476;SDS011;65006;51.698;-0.292;2023-08-21T08:09:52;5.15;;;2.05;;
22476;SDS011;65006;51.698;-0.292;2023-08-21T08:12:18;3.70;;;1.65;;
22476;SDS011;65006;51.698;-0.292;2023-08-21T08:14:44;5.57;;;2.15;;
22476;SDS011;65006;51.698;-0.292;2023-08-21T08:17:11;5.47;;;2.30;;
22476;SDS011;65006;51.698;-0.292;2023-08-21T08:19:37;4.18;;;1.63;;
22476;SDS011;65006;51.698;-0.292;2023-08-21T08:22:03;5.72;;;1.88;;
22476;SDS011;65006;51.698;-0.292;2023-08-21T08:24:29;2.78;;;1.42;;
22476;SDS011;65006;51.698;-0.292;2023-08-21T08:26:55;9.50;;;1.50;;
22476;SDS011;65006;51.698;-0.292;2023-08-21T08:29:22;6.05;;;1.73;;
22476;SDS011;65006;51.698;-0.292;2023-08-21T08:31:48;5.63;;;1.60;;
22476;SDS011;65006;51.698;-0.292;2023-08-21T08:34:14;6.15;;;1.50;;
22476;SDS011;65006;51.698;-0.292;2023-08-21T08:36:43;3.97;;;1.50;;
22476;SDS011;65006;51.698;-0.292;2023-08-21T08:39:09;6.07;;;1.30;;
22476;SDS011;65006;51.698;-0.292;2023-08-21T08:41:43;4.57;;;1.23;;
22476;SDS011;65006;51.698;-0.292;2023-08-21T08:44:14;5.15;;;1.73;;
22476;SDS011;65006;51.698;-0.292;2023-08-21T08:46:42;3.28;;;1.60;;
22476;SDS011;65006;51.698;-0.292;2023-08-21T08:49:08;3.60;;;1.35;;
22476;SDS011;65006;51.698;-0.292;2023-08-21T08:51:34;4.25;;;0.90;;
22476;SDS011;65006;51.698;-0.292;2023-08-21T08:54:02;4.07;;;0.98;;
22476;SDS011;65006;51.698;-0.292;2023-08-21T08:58:54;3.70;;;1.20;;
22476;SDS011;65006;51.698;-0.292;2023-08-21T09:01:20;4.75;;;1.30;;
22476;SDS011;65006;51.698;-0.292;2023-08-21T09:03:46;2.30;;;1.08;;
22476;SDS011;65006;51.698;-0.292;2023-08-21T09:06:15;3.97;;;1.50;;
22476;SDS011;65006;51.698;-0.292;2023-08-21T09:08:50;4.25;;;1.23;;
22476;SDS011;65006;51.698;-0.292;2023-08-21T09:11:20;2.88;;;1.02;;
22476;SDS011;65006;51.698;-0.292;2023-08-21T09:13:48;3.13;;;0.70;;
22476;SDS011;65006;51.698;-0.292;2023-08-21T09:16:14;3.60;;;0.90;;
22476;SDS011;65006;51.698;-0.292;2023-08-21T09:18:51;5.30;;;0.80;;
22476;SDS011;65006;51.698;-0.292;2023-08-21T09:21:21;5.47;;;0.90;;
22476;SDS011;65006;51.698;-0.292;2023-08-21T09:23:50;7.57;;;1.05;;
22476;SDS011;65006;51.698;-0.292;2023-08-21T09:26:19;4.55;;;0.98;;
22476;SDS011;65006;51.698;-0.292;2023-08-21T09:28:46;3.67;;;0.82;;
22476;SDS011;65006;51.698;-0.292;2023-08-21T09:31:12;1.20;;;0.55;;
22476;SDS011;65006;51.698;-0.292;2023-08-21T09:33:38;3.30;;;0.65;;
22476;SDS011;65006;51.698;-0.292;2023-08-21T09:36:05;6.70;;;0.88;;
22476;SDS011;65006;51.698;-0.292;2023-08-21T09:38:31;5.13;;;0.80;;
22476;SDS011;65006;51.698;-0.292;2023-08-21T09:41:00;4.60;;;0.80;;
22476;SDS011;65006;51.698;-0.292;2023-08-21T09:43:27;7.45;;;0.93;;
22476;SDS011;65006;51.698;-0.292;2023-08-21T09:45:54;2.45;;;0.60;;
22476;SDS011;65006;51.698;-0.292;2023-08-21T09:48:26;5.07;;;0.90;;
22476;SDS011;65006;51.698;-0.292;2023-08-21T09:50:53;4.47;;;1.30;;
22476;SDS011;65006;51.698;-0.292;2023-08-21T09:53:20;1.80;;;0.60;;
22476;SDS011;65006;51.698;-0.292;2023-08-21T09:55:47;5.28;;;0.70;;
22476;SDS011;65006;51.698;-0.292;2023-08-21T09:58:14;2.05;;;0.90;;
22476;SDS011;65006;51.698;-0.292;2023-08-21T10:00:41;3.67;;;0.73;;
22476;SDS011;65006;51.698;-0.292;2023-08-21T10:03:08;1.48;;;0.57;;
22476;SDS011;65006;51.698;-0.292;2023-08-21T10:05:36;2.72;;;0.55;;
22476;SDS011;65006;51.698;-0.292;2023-08-21T10:08:03;2.10;;;0.60;;
22476;SDS011;65006;51.698;-0.292;2023-08-21T10:10:33;2.10;;;0.85;;
22476;SDS011;65006;51.698;-0.292;2023-08-21T10:12:59;1.45;;;0.70;;
22476;SDS011;65006;51.698;-0.292;2023-08-21T10:15:28;5.22;;;0.82;;
22476;SDS011;65006;51.698;-0.292;2023-08-21T10:17:54;3.20;;;0.60;;
22476;SDS011;65006;51.698;-0.292;2023-08-21T10:20:21;1.42;;;0.63;;
22476;SDS011;65006;51.698;-0.292;2023-08-21T10:22:55;2.13;;;0.88;;
22476;SDS011;65006;51.698;-0.292;2023-08-21T10:25:28;4.72;;;0.80;;
22476;SDS011;65006;51.698;-0.292;2023-08-21T10:27:57;7.85;;;1.38;;
22476;SDS011;65006;51.698;-0.292;2023-08-21T10:30:25;3.53;;;0.82;;
22476;SDS011;65006;51.698;-0.292;2023-08-21T10:32:53;7.00;;;0.98;;
22476;SDS011;65006;51.698;-0.292;2023-08-21T10:35:21;5.35;;;0.82;;
22476;SDS011;65006;51.698;-0.292;2023-08-21T10:40:33;0.90;;;0.60;;
22476;SDS011;65006;51.698;-0.292;2023-08-21T10:42:59;0.77;;;0.60;;
22476;SDS011;65006;51.698;-0.292;2023-08-21T10:47:52;1.83;;;0.77;;
22476;SDS011;65006;51.698;-0.292;2023-08-21T10:50:18;3.85;;;0.82;;
22476;SDS011;65006;51.698;-0.292;2023-08-21T10:52:45;4.35;;;0.95;;
22476;SDS011;65006;51.698;-0.292;2023-08-21T10:57:37;6.65;;;1.08;;
22476;SDS011;65006;51.698;-0.292;2023-08-21T11:00:08;4.40;;;0.80;;
22476;SDS011;65006;51.698;-0.292;2023-08-21T11:02:35;1.23;;;0.50;;
22476;SDS011;65006;51.698;-0.292;2023-08-21T11:05:01;1.55;;;0.70;;
22476;SDS011;65006;51.698;-0.292;2023-08-21T11:07:28;3.40;;;0.82;;
22476;SDS011;65006;51.698;-0.292;2023-08-21T11:09:54;2.65;;;0.65;;
22476;SDS011;65006;51.698;-0.292;2023-08-21T11:12:21;2.70;;;0.75;;
22476;SDS011;65006;51.698;-0.292;2023-08-21T11:14:48;6.97;;;0.90;;
22476;SDS011;65006;51.698;-0.292;2023-08-21T11:17:14;2.22;;;0.50;;
22476;SDS011;65006;51.698;-0.292;2023-08-21T11:19:41;3.72;;;0.73;;
22476;SDS011;65006;51.698;-0.292;2023-08-21T11:22:07;3.13;;;0.60;;
22476;SDS011;65006;51.698;-0.292;2023-08-21T11:27:09;2.80;;;0.45;;
22476;SDS011;65006;51.698;-0.292;2023-08-21T11:29:36;3.92;;;0.70;;
22476;SDS011;65006;51.698;-0.292;2023-08-21T11:32:03;3.30;;;0.70;;
22476;SDS011;65006;51.698;-0.292;2023-08-21T11:34:33;5.60;;;0.80;;
22476;SDS011;65006;51.698;-0.292;2023-08-21T11:36:59;2.50;;;0.80;;
22476;SDS011;65006;51.698;-0.292;2023-08-21T11:39:25;2.97;;;0.73;;
22476;SDS011;65006;51.698;-0.292;2023-08-21T11:41:57;2.17;;;0.63;;
22476;SDS011;65006;51.698;-0.292;2023-08-21T11:44:24;3.80;;;0.68;;
22476;SDS011;65006;51.698;-0.292;2023-08-21T11:46:51;5.30;;;0.95;;
22476;SDS011;65006;51.698;-0.292;2023-08-21T11:49:20;1.50;;;0.50;;
22476;SDS011;65006;51.698;-0.292;2023-08-21T11:51:49;2.17;;;0.60;;
22476;SDS011;65006;51.698;-0.292;2023-08-21T11:54:16;1.83;;;0.50;;
22476;SDS011;65006;51.698;-0.292;2023-08-21T11:56:43;1.83;;;0.50;;
22476;SDS011;65006;51.698;-0.292;2023-08-21T11:59:09;3.70;;;0.70;;
22476;SDS011;65006;51.698;-0.292;2023-08-21T12:01:35;3.30;;;0.60;;
22476;SDS011;65006;51.698;-0.292;2023-08-21T12:04:01;2.53;;;0.82;;
22476;SDS011;65006;51.698;-0.292;2023-08-21T12:06:43;2.80;;;0.70;;
22476;SDS011;65006;51.698;-0.292;2023-08-21T12:09:09;2.40;;;0.77;;
22476;SDS011;65006;51.698;-0.292;2023-08-21T12:11:35;4.45;;;0.73;;
22476;SDS011;65006;51.698;-0.292;2023-08-21T12:14:03;3.33;;;0.70;;
22476;SDS011;65006;51.698;-0.292;2023-08-21T12:16:29;2.70;;;0.52;;
22476;SDS011;65006;51.698;-0.292;2023-08-21T12:18:55;5.63;;;1.08;;
22476;SDS011;65006;51.698;-0.292;2023-08-21T12:21:24;3.67;;;1.00;;
22476;SDS011;65006;51.698;-0.292;2023-08-21T12:23:50;3.33;;;0.70;;
22476;SDS011;65006;51.698;-0.292;2023-08-21T12:26:16;0.93;;;0.40;;
22476;SDS011;65006;51.698;-0.292;2023-08-21T12:28:46;4.10;;;0.50;;
22476;SDS011;65006;51.698;-0.292;2023-08-21T12:31:12;1.80;;;0.60;;
22476;SDS011;65006;51.698;-0.292;2023-08-21T12:33:38;1.98;;;0.50;;
22476;SDS011;65006;51.698;-0.292;2023-08-21T12:36:04;2.30;;;0.50;;
22476;SDS011;65006;51.698;-0.292;2023-08-21T12:38:30;3.53;;;0.50;;
22476;SDS011;65006;51.698;-0.292;2023-08-21T12:40:57;2.13;;;0.73;;
22476;SDS011;65006;51.698;-0.292;2023-08-21T12:43:23;2.95;;;0.60;;
22476;SDS011;65006;51.698;-0.292;2023-08-21T12:45:50;2.28;;;0.70;;
22476;SDS011;65006;51.698;-0.292;2023-08-21T12:48:16;1.63;;;0.50;;
22476;SDS011;65006;51.698;-0.292;2023-08-21T12:50:42;4.65;;;1.15;;
22476;SDS011;65006;51.698;-0.292;2023-08-21T12:53:08;3.78;;;1.02;;
22476;SDS011;65006;51.698;-0.292;2023-08-21T12:55:34;1.67;;;0.55;;
22476;SDS011;65006;51.698;-0.292;2023-08-21T12:58:01;2.65;;;0.73;;
22476;SDS011;65006;51.698;-0.292;2023-08-21T13:00:27;4.40;;;0.93;;
22476;SDS011;65006;51.698;-0.292;2023-08-21T13:02:53;2.85;;;0.57;;
22476;SDS011;65006;51.698;-0.292;2023-08-21T13:05:19;3.67;;;0.70;;
22476;SDS011;65006;51.698;-0.292;2023-08-21T13:07:45;3.55;;;0.52;;
22476;SDS011;65006;51.698;-0.292;2023-08-21T13:10:11;3.92;;;0.50;;
22476;SDS011;65006;51.698;-0.292;2023-08-21T13:12:37;1.35;;;0.90;;
22476;SDS011;65006;51.698;-0.292;2023-08-21T13:15:03;2.25;;;0.38;;
22476;SDS011;65006;51.698;-0.292;2023-08-21T13:17:32;1.35;;;0.47;;
22476;SDS011;65006;51.698;-0.292;2023-08-21T13:19:58;3.75;;;0.98;;
22476;SDS011;65006;51.698;-0.292;2023-08-21T13:22:24;1.80;;;0.50;;
22476;SDS011;65006;51.698;-0.292;2023-08-21T13:24:50;2.33;;;0.57;;
22476;SDS011;65006;51.698;-0.292;2023-08-21T13:27:16;1.55;;;0.95;;
22476;SDS011;65006;51.698;-0.292;2023-08-21T13:29:42;5.47;;;0.50;;
22476;SDS011;65006;51.698;-0.292;2023-08-21T13:32:08;1.95;;;0.40;;
22476;SDS011;65006;51.698;-0.292;2023-08-21T13:34:35;2.45;;;0.57;;
22476;SDS011;65006;51.698;-0.292;2023-08-21T13:37:01;2.38;;;0.50;;
22476;SDS011;65006;51.698;-0.292;2023-08-21T13:39:27;3.53;;;0.65;;
22476;SDS011;65006;51.698;-0.292;2023-08-21T13:41:53;2.03;;;0.50;;
22476;SDS011;65006;51.698;-0.292;2023-08-21T13:44:19;2.70;;;0.60;;
22476;SDS011;65006;51.698;-0.292;2023-08-21T13:46:45;2.70;;;0.60;;
22476;SDS011;65006;51.698;-0.292;2023-08-21T13:49:11;0.90;;;0.50;;
22476;SDS011;65006;51.698;-0.292;2023-08-21T13:51:37;1.92;;;0.40;;
22476;SDS011;65006;51.698;-0.292;2023-08-21T13:54:03;0.82;;;0.50;;
22476;SDS011;65006;51.698;-0.292;2023-08-21T13:56:29;2.22;;;0.40;;
22476;SDS011;65006;51.698;-0.292;2023-08-21T13:58:55;1.00;;;0.52;;
22476;SDS011;65006;51.698;-0.292;2023-08-21T14:01:21;4.25;;;0.50;;
22476;SDS011;65006;51.698;-0.292;2023-08-21T14:03:47;4.15;;;0.47;;
22476;SDS011;65006;51.698;-0.292;2023-08-21T14:06:13;0.95;;;0.43;;
22476;SDS011;65006;51.698;-0.292;2023-08-21T14:08:39;0.65;;;0.40;;
22476;SDS011;65006;51.698;-0.292;2023-08-21T14:11:06;1.42;;;0.60;;
22476;SDS011;65006;51.698;-0.292;2023-08-21T14:13:32;2.42;;;0.40;;
22476;SDS011;65006;51.698;-0.292;2023-08-21T14:15:59;2.17;;;0.70;;
22476;SDS011;65006;51.698;-0.292;2023-08-21T14:18:25;1.33;;;0.30;;
22476;SDS011;65006;51.698;-0.292;2023-08-21T14:20:51;1.63;;;0.50;;
22476;SDS011;65006;51.698;-0.292;2023-08-21T14:23:17;1.13;;;0.50;;
22476;SDS011;65006;51.698;-0.292;2023-08-21T14:25:43;0.60;;;0.47;;
22476;SDS011;65006;51.698;-0.292;2023-08-21T14:28:09;2.78;;;0.68;;
22476;SDS011;65006;51.698;-0.292;2023-08-21T14:30:35;1.25;;;0.40;;
22476;SDS011;65006;51.698;-0.292;2023-08-21T14:33:00;3.08;;;0.60;;
22476;SDS011;65006;51.698;-0.292;2023-08-21T14:35:27;1.10;;;0.60;;
22476;SDS011;65006;51.698;-0.292;2023-08-21T14:37:53;3.38;;;1.00;;
22476;SDS011;65006;51.698;-0.292;2023-08-21T14:40:19;1.67;;;0.80;;
22476;SDS011;65006;51.698;-0.292;2023-08-21T14:42:45;2.50;;;1.25;;
22476;SDS011;65006;51.698;-0.292;2023-08-21T14:45:11;2.30;;;0.57;;
22476;SDS011;65006;51.698;-0.292;2023-08-21T14:47:37;2.40;;;0.63;;
22476;SDS011;65006;51.698;-0.292;2023-08-21T14:50:04;3.08;;;0.70;;
22476;SDS011;65006;51.698;-0.292;2023-08-21T14:52:30;1.83;;;0.50;;
22476;SDS011;65006;51.698;-0.292;2023-08-21T14:54:56;3.45;;;0.82;;
22476;SDS011;65006;51.698;-0.292;2023-08-21T14:57:22;1.33;;;0.50;;
22476;SDS011;65006;51.698;-0.292;2023-08-21T14:59:48;4.63;;;0.57;;
22476;SDS011;65006;51.698;-0.292;2023-08-21T15:02:14;1.67;;;0.75;;
22476;SDS011;65006;51.698;-0.292;2023-08-21T15:04:43;4.65;;;0.50;;
22476;SDS011;65006;51.698;-0.292;2023-08-21T15:07:09;3.20;;;0.60;;